sensor_id;sensor_type;location;lat;lon;timestamp;P1;durP1;ratioP1;P2;durP2;ratioP2
49678;SDS011;35570;48.218;16.326;2024-03-17T00:01:49;0.70;;;0.43;;
49678;SDS011;35570;48.218;16.326;2024-03-17T00:04:15;1.35;;;0.60;;
49678;SDS011;35570;48.218;16.326;2024-03-17T00:06:41;1.23;;;0.52;;
49678;SDS011;35570;48.218;16.326;2024-03-17T00:09:06;1.65;;;0.57;;
49678;SDS011;35570;48.218;16.326;2024-03-17T00:11:34;0.52;;;0.40;;
49678;SDS011;35570;48.218;16.326;2024-03-17T00:14:03;1.23;;;0.40;;
49678;SDS011;35570;48.218;16.326;2024-03-17T00:16:30;1.00;;;0.50;;
49678;SDS011;35570;48.218;16.326;2024-03-17T00:18:56;0.50;;;0.50;;
49678;SDS011;35570;48.218;16.326;2024-03-17T00:21:22;0.85;;;0.52;;
49678;SDS011;35570;48.218;16.326;2024-03-17T00:23:48;3.13;;;0.75;;
49678;SDS011;35570;48.218;16.326;2024-03-17T00:26:16;1.30;;;1.00;;
49678;SDS011;35570;48.218;16.326;2024-03-17T00:28:44;1.55;;;0.80;;
49678;SDS011;35570;48.218;16.326;2024-03-17T00:31:13;1.90;;;1.75;;
49678;SDS011;35570;48.218;16.326;2024-03-17T00:33:39;1.25;;;1.15;;
49678;SDS011;35570;48.218;16.326;2024-03-17T00:36:05;1.50;;;1.38;;
49678;SDS011;35570;48.218;16.326;2024-03-17T00:38:31;1.42;;;1.30;;
49678;SDS011;35570;48.218;16.326;2024-03-17T00:40:57;1.58;;;1.17;;
49678;SDS011;35570;48.218;16.326;2024-03-17T00:43:22;1.00;;;0.90;;
49678;SDS011;35570;48.218;16.326;2024-03-17T00:45:51;1.52;;;1.20;;
49678;SDS011;35570;48.218;16.326;2024-03-17T00:48:18;1.00;;;0.90;;
49678;SDS011;35570;48.218;16.326;2024-03-17T00:50:43;2.50;;;1.08;;
49678;SDS011;35570;48.218;16.326;2024-03-17T00:53:12;0.93;;;0.80;;
49678;SDS011;35570;48.218;16.326;2024-03-17T00:55:39;1.63;;;0.93;;
49678;SDS011;35570;48.218;16.326;2024-03-17T00:58:04;1.98;;;1.20;;
49678;SDS011;35570;48.218;16.326;2024-03-17T01:00:31;1.20;;;1.00;;
49678;SDS011;35570;48.218;16.326;2024-03-17T01:02:58;1.75;;;0.90;;
49678;SDS011;35570;48.218;16.326;2024-03-17T01:05:24;1.58;;;0.95;;
49678;SDS011;35570;48.218;16.326;2024-03-17T01:07:49;1.33;;;1.10;;
49678;SDS011;35570;48.218;16.326;2024-03-17T01:10:15;1.30;;;1.10;;
49678;SDS011;35570;48.218;16.326;2024-03-17T01:12:41;1.77;;;1.00;;
49678;SDS011;35570;48.218;16.326;2024-03-17T01:15:07;1.63;;;1.05;;
49678;SDS011;35570;48.218;16.326;2024-03-17T01:17:33;1.20;;;0.95;;
49678;SDS011;35570;48.218;16.326;2024-03-17T01:19:59;1.77;;;1.40;;
49678;SDS011;35570;48.218;16.326;2024-03-17T01:22:24;1.38;;;1.10;;
49678;SDS011;35570;48.218;16.326;2024-03-17T01:24:50;2.05;;;1.20;;
49678;SDS011;35570;48.218;16.326;2024-03-17T01:27:16;1.27;;;1.13;;
49678;SDS011;35570;48.218;16.326;2024-03-17T01:29:44;1.95;;;1.30;;
49678;SDS011;35570;48.218;16.326;2024-03-17T01:32:10;2.40;;;1.30;;
49678;SDS011;35570;48.218;16.326;2024-03-17T01:34:37;2.25;;;1.42;;
49678;SDS011;35570;48.218;16.326;2024-03-17T01:37:03;2.20;;;1.40;;
49678;SDS011;35570;48.218;16.326;2024-03-17T01:39:29;1.77;;;1.20;;
49678;SDS011;35570;48.218;16.326;2024-03-17T01:41:55;1.50;;;1.30;;
49678;SDS011;35570;48.218;16.326;2024-03-17T01:44:21;1.52;;;1.20;;
49678;SDS011;35570;48.218;16.326;2024-03-17T01:46:49;1.40;;;1.30;;
49678;SDS011;35570;48.218;16.326;2024-03-17T01:49:16;1.73;;;1.40;;
49678;SDS011;35570;48.218;16.326;2024-03-17T01:51:42;3.08;;;1.60;;
49678;SDS011;35570;48.218;16.326;2024-03-17T01:54:09;2.65;;;2.08;;
49678;SDS011;35570;48.218;16.326;2024-03-17T01:56:35;2.28;;;1.95;;
49678;SDS011;35570;48.218;16.326;2024-03-17T01:59:01;1.98;;;1.85;;
49678;SDS011;35570;48.218;16.326;2024-03-17T02:01:28;3.15;;;1.75;;
49678;SDS011;35570;48.218;16.326;2024-03-17T02:03:54;1.52;;;1.40;;
49678;SDS011;35570;48.218;16.326;2024-03-17T02:06:19;2.17;;;1.65;;
49678;SDS011;35570;48.218;16.326;2024-03-17T02:08:52;2.92;;;2.15;;
49678;SDS011;35570;48.218;16.326;2024-03-17T02:11:26;2.47;;;2.10;;
49678;SDS011;35570;48.218;16.326;2024-03-17T02:13:53;2.38;;;2.15;;
49678;SDS011;35570;48.218;16.326;2024-03-17T02:16:20;4.07;;;2.38;;
49678;SDS011;35570;48.218;16.326;2024-03-17T02:18:46;3.65;;;2.10;;
49678;SDS011;35570;48.218;16.326;2024-03-17T02:21:12;2.55;;;2.20;;
49678;SDS011;35570;48.218;16.326;2024-03-17T02:23:39;8.00;;;2.67;;
49678;SDS011;35570;48.218;16.326;2024-03-17T02:26:04;3.53;;;2.30;;
49678;SDS011;35570;48.218;16.326;2024-03-17T02:28:37;3.90;;;2.65;;
49678;SDS011;35570;48.218;16.326;2024-03-17T02:33:30;5.45;;;3.40;;
49678;SDS011;35570;48.218;16.326;2024-03-17T02:35:55;6.13;;;2.80;;
49678;SDS011;35570;48.218;16.326;2024-03-17T02:38:21;3.67;;;3.00;;
49678;SDS011;35570;48.218;16.326;2024-03-17T02:43:30;4.05;;;2.50;;
49678;SDS011;35570;48.218;16.326;2024-03-17T02:45:56;6.75;;;3.08;;
49678;SDS011;35570;48.218;16.326;2024-03-17T02:48:22;4.85;;;2.83;;
49678;SDS011;35570;48.218;16.326;2024-03-17T02:50:48;5.32;;;2.63;;
49678;SDS011;35570;48.218;16.326;2024-03-17T02:53:14;4.65;;;2.78;;
49678;SDS011;35570;48.218;16.326;2024-03-17T02:55:39;5.70;;;3.03;;
49678;SDS011;35570;48.218;16.326;2024-03-17T02:58:05;5.82;;;2.90;;
49678;SDS011;35570;48.218;16.326;2024-03-17T03:00:31;6.50;;;3.25;;
49678;SDS011;35570;48.218;16.326;2024-03-17T03:02:57;5.20;;;2.83;;
49678;SDS011;35570;48.218;16.326;2024-03-17T03:05:22;4.68;;;2.55;;
49678;SDS011;35570;48.218;16.326;2024-03-17T03:07:48;5.38;;;2.70;;
49678;SDS011;35570;48.218;16.326;2024-03-17T03:10:14;6.45;;;3.08;;
49678;SDS011;35570;48.218;16.326;2024-03-17T03:12:39;4.68;;;2.83;;
49678;SDS011;35570;48.218;16.326;2024-03-17T03:15:05;5.47;;;3.00;;
49678;SDS011;35570;48.218;16.326;2024-03-17T03:17:31;4.78;;;3.00;;
49678;SDS011;35570;48.218;16.326;2024-03-17T03:19:57;5.70;;;2.92;;
49678;SDS011;35570;48.218;16.326;2024-03-17T03:22:23;5.78;;;3.13;;
49678;SDS011;35570;48.218;16.326;2024-03-17T03:24:51;6.72;;;3.50;;
49678;SDS011;35570;48.218;16.326;2024-03-17T03:27:17;5.93;;;3.45;;
49678;SDS011;35570;48.218;16.326;2024-03-17T03:29:43;4.22;;;3.10;;
49678;SDS011;35570;48.218;16.326;2024-03-17T03:32:09;7.00;;;3.85;;
49678;SDS011;35570;48.218;16.326;2024-03-17T03:34:35;6.80;;;3.63;;
49678;SDS011;35570;48.218;16.326;2024-03-17T03:37:00;5.82;;;3.13;;
49678;SDS011;35570;48.218;16.326;2024-03-17T03:39:26;4.30;;;3.17;;
49678;SDS011;35570;48.218;16.326;2024-03-17T03:41:56;4.75;;;3.10;;
49678;SDS011;35570;48.218;16.326;2024-03-17T03:44:22;4.57;;;3.20;;
49678;SDS011;35570;48.218;16.326;2024-03-17T03:46:47;5.32;;;3.30;;
49678;SDS011;35570;48.218;16.326;2024-03-17T03:49:13;3.83;;;2.95;;
49678;SDS011;35570;48.218;16.326;2024-03-17T03:51:39;5.45;;;3.42;;
49678;SDS011;35570;48.218;16.326;2024-03-17T03:54:05;4.30;;;3.03;;
49678;SDS011;35570;48.218;16.326;2024-03-17T03:56:32;5.43;;;3.63;;
49678;SDS011;35570;48.218;16.326;2024-03-17T03:58:58;5.97;;;3.30;;
49678;SDS011;35570;48.218;16.326;2024-03-17T04:01:24;4.22;;;3.40;;
49678;SDS011;35570;48.218;16.326;2024-03-17T04:03:50;5.00;;;3.28;;
49678;SDS011;35570;48.218;16.326;2024-03-17T04:06:15;4.65;;;3.17;;
49678;SDS011;35570;48.218;16.326;2024-03-17T04:08:42;5.65;;;3.72;;
49678;SDS011;35570;48.218;16.326;2024-03-17T04:11:08;5.97;;;3.70;;
49678;SDS011;35570;48.218;16.326;2024-03-17T04:13:34;5.72;;;3.22;;
49678;SDS011;35570;48.218;16.326;2024-03-17T04:16:00;5.28;;;3.97;;
49678;SDS011;35570;48.218;16.326;2024-03-17T04:18:29;5.28;;;4.05;;
49678;SDS011;35570;48.218;16.326;2024-03-17T04:20:55;5.15;;;3.45;;
49678;SDS011;35570;48.218;16.326;2024-03-17T04:23:22;5.85;;;3.60;;
49678;SDS011;35570;48.218;16.326;2024-03-17T04:25:49;5.40;;;3.38;;
49678;SDS011;35570;48.218;16.326;2024-03-17T04:28:16;5.32;;;3.17;;
49678;SDS011;35570;48.218;16.326;2024-03-17T04:30:42;6.05;;;3.80;;
49678;SDS011;35570;48.218;16.326;2024-03-17T04:33:08;6.40;;;3.70;;
49678;SDS011;35570;48.218;16.326;2024-03-17T04:35:40;5.35;;;3.72;;
49678;SDS011;35570;48.218;16.326;2024-03-17T04:38:06;4.82;;;3.53;;
49678;SDS011;35570;48.218;16.326;2024-03-17T04:40:32;5.80;;;3.67;;
49678;SDS011;35570;48.218;16.326;2024-03-17T04:42:58;6.35;;;3.92;;
49678;SDS011;35570;48.218;16.326;2024-03-17T04:45:24;8.05;;;3.63;;
49678;SDS011;35570;48.218;16.326;2024-03-17T04:47:51;4.32;;;3.70;;
49678;SDS011;35570;48.218;16.326;2024-03-17T04:50:16;6.90;;;3.92;;
49678;SDS011;35570;48.218;16.326;2024-03-17T04:52:42;4.35;;;3.53;;
49678;SDS011;35570;48.218;16.326;2024-03-17T04:55:08;6.93;;;3.88;;
49678;SDS011;35570;48.218;16.326;2024-03-17T04:57:33;5.13;;;3.83;;
49678;SDS011;35570;48.218;16.326;2024-03-17T04:59:59;6.43;;;4.18;;
49678;SDS011;35570;48.218;16.326;2024-03-17T05:02:25;4.97;;;4.18;;
49678;SDS011;35570;48.218;16.326;2024-03-17T05:04:51;5.60;;;4.03;;
49678;SDS011;35570;48.218;16.326;2024-03-17T05:07:18;5.28;;;3.92;;
49678;SDS011;35570;48.218;16.326;2024-03-17T05:09:44;5.03;;;3.97;;
49678;SDS011;35570;48.218;16.326;2024-03-17T05:12:10;4.85;;;3.85;;
49678;SDS011;35570;48.218;16.326;2024-03-17T05:14:35;5.97;;;3.90;;
49678;SDS011;35570;48.218;16.326;2024-03-17T05:17:01;7.68;;;3.92;;
49678;SDS011;35570;48.218;16.326;2024-03-17T05:19:27;6.60;;;4.07;;
49678;SDS011;35570;48.218;16.326;2024-03-17T05:21:52;5.63;;;4.05;;
49678;SDS011;35570;48.218;16.326;2024-03-17T05:24:18;5.68;;;3.65;;
49678;SDS011;35570;48.218;16.326;2024-03-17T05:26:44;5.22;;;3.60;;
49678;SDS011;35570;48.218;16.326;2024-03-17T05:29:10;5.25;;;3.42;;
49678;SDS011;35570;48.218;16.326;2024-03-17T05:31:36;4.85;;;2.92;;
49678;SDS011;35570;48.218;16.326;2024-03-17T05:34:04;4.30;;;3.10;;
49678;SDS011;35570;48.218;16.326;2024-03-17T05:36:32;6.38;;;3.75;;
49678;SDS011;35570;48.218;16.326;2024-03-17T05:38:58;6.80;;;3.75;;
49678;SDS011;35570;48.218;16.326;2024-03-17T05:41:24;4.53;;;3.50;;
49678;SDS011;35570;48.218;16.326;2024-03-17T05:43:51;4.85;;;3.15;;
49678;SDS011;35570;48.218;16.326;2024-03-17T05:46:17;5.78;;;3.30;;
49678;SDS011;35570;48.218;16.326;2024-03-17T05:48:43;5.93;;;3.40;;
49678;SDS011;35570;48.218;16.326;2024-03-17T05:51:09;5.50;;;3.58;;
49678;SDS011;35570;48.218;16.326;2024-03-17T05:53:36;7.50;;;3.90;;
49678;SDS011;35570;48.218;16.326;2024-03-17T05:56:05;5.32;;;3.58;;
49678;SDS011;35570;48.218;16.326;2024-03-17T05:58:36;5.25;;;3.38;;
49678;SDS011;35570;48.218;16.326;2024-03-17T06:01:02;7.40;;;3.28;;
49678;SDS011;35570;48.218;16.326;2024-03-17T06:03:28;6.45;;;3.35;;
49678;SDS011;35570;48.218;16.326;2024-03-17T06:05:54;7.25;;;3.40;;
49678;SDS011;35570;48.218;16.326;2024-03-17T06:08:20;5.13;;;3.10;;
49678;SDS011;35570;48.218;16.326;2024-03-17T06:10:47;5.13;;;2.70;;
49678;SDS011;35570;48.218;16.326;2024-03-17T06:13:14;5.90;;;2.88;;
49678;SDS011;35570;48.218;16.326;2024-03-17T06:15:42;9.25;;;4.00;;
49678;SDS011;35570;48.218;16.326;2024-03-17T06:18:09;3.97;;;2.60;;
49678;SDS011;35570;48.218;16.326;2024-03-17T06:20:42;4.05;;;2.58;;
49678;SDS011;35570;48.218;16.326;2024-03-17T06:23:08;4.82;;;2.63;;
49678;SDS011;35570;48.218;16.326;2024-03-17T06:25:41;3.78;;;2.55;;
49678;SDS011;35570;48.218;16.326;2024-03-17T06:28:09;7.75;;;3.05;;
49678;SDS011;35570;48.218;16.326;2024-03-17T06:30:38;4.63;;;2.50;;
49678;SDS011;35570;48.218;16.326;2024-03-17T06:33:25;4.80;;;2.50;;
49678;SDS011;35570;48.218;16.326;2024-03-17T06:35:51;4.85;;;2.38;;
49678;SDS011;35570;48.218;16.326;2024-03-17T06:38:17;7.20;;;2.45;;
49678;SDS011;35570;48.218;16.326;2024-03-17T06:40:52;5.03;;;2.72;;
49678;SDS011;35570;48.218;16.326;2024-03-17T06:43:18;5.97;;;2.35;;
49678;SDS011;35570;48.218;16.326;2024-03-17T06:45:53;5.25;;;2.78;;
49678;SDS011;35570;48.218;16.326;2024-03-17T06:48:19;5.78;;;2.70;;
49678;SDS011;35570;48.218;16.326;2024-03-17T06:50:46;4.72;;;2.15;;
49678;SDS011;35570;48.218;16.326;2024-03-17T06:53:11;5.85;;;2.50;;
49678;SDS011;35570;48.218;16.326;2024-03-17T06:55:37;6.13;;;2.50;;
49678;SDS011;35570;48.218;16.326;2024-03-17T06:58:03;7.28;;;1.90;;
49678;SDS011;35570;48.218;16.326;2024-03-17T07:00:29;4.22;;;2.00;;
49678;SDS011;35570;48.218;16.326;2024-03-17T07:02:55;3.90;;;2.10;;
49678;SDS011;35570;48.218;16.326;2024-03-17T07:05:20;4.55;;;2.10;;
49678;SDS011;35570;48.218;16.326;2024-03-17T07:07:46;5.75;;;1.90;;
49678;SDS011;35570;48.218;16.326;2024-03-17T07:10:12;4.68;;;1.98;;
49678;SDS011;35570;48.218;16.326;2024-03-17T07:12:38;4.28;;;1.90;;
49678;SDS011;35570;48.218;16.326;2024-03-17T07:15:04;7.40;;;2.10;;
49678;SDS011;35570;48.218;16.326;2024-03-17T07:17:31;3.75;;;1.63;;
49678;SDS011;35570;48.218;16.326;2024-03-17T07:19:57;6.22;;;2.25;;
49678;SDS011;35570;48.218;16.326;2024-03-17T07:22:22;6.85;;;2.40;;
49678;SDS011;35570;48.218;16.326;2024-03-17T07:24:51;4.80;;;1.80;;
49678;SDS011;35570;48.218;16.326;2024-03-17T07:27:20;3.92;;;1.60;;
49678;SDS011;35570;48.218;16.326;2024-03-17T07:29:46;4.93;;;1.98;;
49678;SDS011;35570;48.218;16.326;2024-03-17T07:32:12;5.28;;;2.00;;
49678;SDS011;35570;48.218;16.326;2024-03-17T07:34:37;6.18;;;2.20;;
49678;SDS011;35570;48.218;16.326;2024-03-17T07:37:03;6.05;;;2.45;;
49678;SDS011;35570;48.218;16.326;2024-03-17T07:39:29;4.60;;;1.75;;
49678;SDS011;35570;48.218;16.326;2024-03-17T07:42:01;7.38;;;2.17;;
49678;SDS011;35570;48.218;16.326;2024-03-17T07:44:28;2.67;;;1.92;;
49678;SDS011;35570;48.218;16.326;2024-03-17T07:46:58;3.47;;;1.85;;
49678;SDS011;35570;48.218;16.326;2024-03-17T07:49:24;5.82;;;2.17;;
49678;SDS011;35570;48.218;16.326;2024-03-17T07:51:49;5.68;;;1.95;;
49678;SDS011;35570;48.218;16.326;2024-03-17T07:54:15;3.95;;;2.00;;
49678;SDS011;35570;48.218;16.326;2024-03-17T07:56:40;4.32;;;1.90;;
49678;SDS011;35570;48.218;16.326;2024-03-17T07:59:06;3.45;;;2.03;;
49678;SDS011;35570;48.218;16.326;2024-03-17T08:01:37;4.63;;;1.90;;
49678;SDS011;35570;48.218;16.326;2024-03-17T08:04:03;3.92;;;1.75;;
49678;SDS011;35570;48.218;16.326;2024-03-17T08:06:29;3.70;;;1.98;;
49678;SDS011;35570;48.218;16.326;2024-03-17T08:08:54;5.65;;;2.03;;
49678;SDS011;35570;48.218;16.326;2024-03-17T08:11:20;4.93;;;1.75;;
49678;SDS011;35570;48.218;16.326;2024-03-17T08:13:46;3.92;;;1.65;;
49678;SDS011;35570;48.218;16.326;2024-03-17T08:16:13;2.85;;;1.70;;
49678;SDS011;35570;48.218;16.326;2024-03-17T08:18:39;4.72;;;2.00;;
49678;SDS011;35570;48.218;16.326;2024-03-17T08:21:08;5.38;;;2.25;;
49678;SDS011;35570;48.218;16.326;2024-03-17T08:23:34;5.85;;;2.08;;
49678;SDS011;35570;48.218;16.326;2024-03-17T08:26:12;3.30;;;2.10;;
49678;SDS011;35570;48.218;16.326;2024-03-17T08:28:37;5.30;;;2.20;;
49678;SDS011;35570;48.218;16.326;2024-03-17T08:31:04;3.88;;;2.60;;
49678;SDS011;35570;48.218;16.326;2024-03-17T08:33:30;4.85;;;2.67;;
49678;SDS011;35570;48.218;16.326;2024-03-17T08:35:58;2.78;;;1.90;;
49678;SDS011;35570;48.218;16.326;2024-03-17T08:38:24;4.88;;;2.53;;
49678;SDS011;35570;48.218;16.326;2024-03-17T08:40:51;5.38;;;2.03;;
49678;SDS011;35570;48.218;16.326;2024-03-17T08:43:18;3.75;;;2.05;;
49678;SDS011;35570;48.218;16.326;2024-03-17T08:45:45;3.58;;;2.10;;
49678;SDS011;35570;48.218;16.326;2024-03-17T08:48:11;3.55;;;2.00;;
49678;SDS011;35570;48.218;16.326;2024-03-17T08:50:36;3.38;;;1.73;;
49678;SDS011;35570;48.218;16.326;2024-03-17T08:53:02;4.03;;;2.00;;
49678;SDS011;35570;48.218;16.326;2024-03-17T08:55:28;3.30;;;1.90;;
49678;SDS011;35570;48.218;16.326;2024-03-17T08:57:54;3.03;;;1.38;;
49678;SDS011;35570;48.218;16.326;2024-03-17T09:00:19;3.28;;;1.92;;
49678;SDS011;35570;48.218;16.326;2024-03-17T09:02:45;3.55;;;1.95;;
49678;SDS011;35570;48.218;16.326;2024-03-17T09:05:10;4.03;;;1.85;;
49678;SDS011;35570;48.218;16.326;2024-03-17T09:07:37;3.67;;;1.88;;
49678;SDS011;35570;48.218;16.326;2024-03-17T09:10:03;4.22;;;2.40;;
49678;SDS011;35570;48.218;16.326;2024-03-17T09:12:30;4.13;;;2.00;;
49678;SDS011;35570;48.218;16.326;2024-03-17T09:14:55;4.10;;;2.03;;
49678;SDS011;35570;48.218;16.326;2024-03-17T09:17:21;3.20;;;1.77;;
49678;SDS011;35570;48.218;16.326;2024-03-17T09:19:47;5.63;;;1.65;;
49678;SDS011;35570;48.218;16.326;2024-03-17T09:22:15;6.32;;;2.67;;
49678;SDS011;35570;48.218;16.326;2024-03-17T09:24:41;4.18;;;2.05;;
49678;SDS011;35570;48.218;16.326;2024-03-17T09:27:06;2.42;;;1.85;;
49678;SDS011;35570;48.218;16.326;2024-03-17T09:29:32;4.45;;;2.08;;
49678;SDS011;35570;48.218;16.326;2024-03-17T09:31:58;4.57;;;1.90;;
49678;SDS011;35570;48.218;16.326;2024-03-17T09:34:24;4.53;;;1.85;;
49678;SDS011;35570;48.218;16.326;2024-03-17T09:36:51;3.47;;;1.90;;
49678;SDS011;35570;48.218;16.326;2024-03-17T09:39:17;3.70;;;2.25;;
49678;SDS011;35570;48.218;16.326;2024-03-17T09:41:44;4.00;;;2.58;;
49678;SDS011;35570;48.218;16.326;2024-03-17T09:44:12;5.68;;;2.50;;
49678;SDS011;35570;48.218;16.326;2024-03-17T09:46:38;2.65;;;1.80;;
49678;SDS011;35570;48.218;16.326;2024-03-17T09:49:04;2.35;;;1.30;;
49678;SDS011;35570;48.218;16.326;2024-03-17T09:51:34;2.92;;;1.67;;
49678;SDS011;35570;48.218;16.326;2024-03-17T09:54:05;2.35;;;1.48;;
49678;SDS011;35570;48.218;16.326;2024-03-17T09:56:43;4.15;;;1.83;;
49678;SDS011;35570;48.218;16.326;2024-03-17T09:59:09;2.63;;;1.58;;
49678;SDS011;35570;48.218;16.326;2024-03-17T10:01:34;3.25;;;1.40;;
49678;SDS011;35570;48.218;16.326;2024-03-17T10:04:00;2.33;;;1.45;;
49678;SDS011;35570;48.218;16.326;2024-03-17T10:06:35;2.80;;;1.65;;
49678;SDS011;35570;48.218;16.326;2024-03-17T10:09:13;3.15;;;1.52;;
49678;SDS011;35570;48.218;16.326;2024-03-17T10:11:46;3.47;;;1.80;;
49678;SDS011;35570;48.218;16.326;2024-03-17T10:14:12;3.97;;;2.10;;
49678;SDS011;35570;48.218;16.326;2024-03-17T10:16:41;4.82;;;2.22;;
49678;SDS011;35570;48.218;16.326;2024-03-17T10:19:10;4.20;;;2.45;;
49678;SDS011;35570;48.218;16.326;2024-03-17T10:21:49;1.73;;;1.30;;
49678;SDS011;35570;48.218;16.326;2024-03-17T10:31:41;3.05;;;1.70;;
49678;SDS011;35570;48.218;16.326;2024-03-17T10:34:09;3.58;;;1.55;;
49678;SDS011;35570;48.218;16.326;2024-03-17T10:36:41;3.03;;;1.50;;
49678;SDS011;35570;48.218;16.326;2024-03-17T10:39:17;2.83;;;1.90;;
49678;SDS011;35570;48.218;16.326;2024-03-17T10:41:55;3.35;;;1.25;;
49678;SDS011;35570;48.218;16.326;2024-03-17T10:44:31;2.85;;;1.35;;
49678;SDS011;35570;48.218;16.326;2024-03-17T10:46:59;2.58;;;1.50;;
49678;SDS011;35570;48.218;16.326;2024-03-17T10:49:32;2.80;;;1.80;;
49678;SDS011;35570;48.218;16.326;2024-03-17T10:54:25;3.85;;;1.30;;
49678;SDS011;35570;48.218;16.326;2024-03-17T10:56:53;3.47;;;1.70;;
49678;SDS011;35570;48.218;16.326;2024-03-17T10:59:21;4.45;;;1.23;;
49678;SDS011;35570;48.218;16.326;2024-03-17T11:01:57;2.28;;;1.30;;
49678;SDS011;35570;48.218;16.326;2024-03-17T11:04:22;3.30;;;1.60;;
49678;SDS011;35570;48.218;16.326;2024-03-17T11:06:48;3.53;;;2.00;;
49678;SDS011;35570;48.218;16.326;2024-03-17T11:09:14;3.70;;;1.88;;
49678;SDS011;35570;48.218;16.326;2024-03-17T11:11:42;2.35;;;1.30;;
49678;SDS011;35570;48.218;16.326;2024-03-17T11:14:18;2.13;;;1.30;;
49678;SDS011;35570;48.218;16.326;2024-03-17T11:16:45;3.65;;;1.10;;
49678;SDS011;35570;48.218;16.326;2024-03-17T11:19:15;2.00;;;1.00;;
49678;SDS011;35570;48.218;16.326;2024-03-17T11:21:42;2.20;;;1.40;;
49678;SDS011;35570;48.218;16.326;2024-03-17T11:24:18;5.15;;;2.17;;
49678;SDS011;35570;48.218;16.326;2024-03-17T11:26:45;2.60;;;0.93;;
49678;SDS011;35570;48.218;16.326;2024-03-17T11:29:27;2.08;;;1.10;;
49678;SDS011;35570;48.218;16.326;2024-03-17T11:31:54;2.58;;;1.15;;
49678;SDS011;35570;48.218;16.326;2024-03-17T11:34:36;2.95;;;1.23;;
49678;SDS011;35570;48.218;16.326;2024-03-17T11:37:06;2.42;;;1.15;;
49678;SDS011;35570;48.218;16.326;2024-03-17T11:39:52;2.22;;;1.20;;
49678;SDS011;35570;48.218;16.326;2024-03-17T11:42:23;2.17;;;1.05;;
49678;SDS011;35570;48.218;16.326;2024-03-17T11:44:57;2.90;;;1.00;;
49678;SDS011;35570;48.218;16.326;2024-03-17T11:47:34;2.15;;;1.02;;
49678;SDS011;35570;48.218;16.326;2024-03-17T11:50:02;2.25;;;0.82;;
49678;SDS011;35570;48.218;16.326;2024-03-17T11:52:29;2.83;;;1.05;;
49678;SDS011;35570;48.218;16.326;2024-03-17T11:54:55;2.15;;;1.20;;
49678;SDS011;35570;48.218;16.326;2024-03-17T11:57:22;2.08;;;1.10;;
49678;SDS011;35570;48.218;16.326;2024-03-17T11:59:49;2.03;;;1.10;;
49678;SDS011;35570;48.218;16.326;2024-03-17T12:02:29;2.05;;;1.02;;
49678;SDS011;35570;48.218;16.326;2024-03-17T12:05:02;2.13;;;1.40;;
49678;SDS011;35570;48.218;16.326;2024-03-17T12:07:30;3.88;;;1.50;;
49678;SDS011;35570;48.218;16.326;2024-03-17T12:09:56;2.78;;;1.55;;
49678;SDS011;35570;48.218;16.326;2024-03-17T12:12:23;2.25;;;1.60;;
49678;SDS011;35570;48.218;16.326;2024-03-17T12:14:56;3.22;;;1.60;;
49678;SDS011;35570;48.218;16.326;2024-03-17T12:17:22;2.75;;;1.20;;
49678;SDS011;35570;48.218;16.326;2024-03-17T12:19:48;3.80;;;2.00;;
49678;SDS011;35570;48.218;16.326;2024-03-17T12:24:51;2.60;;;1.20;;
49678;SDS011;35570;48.218;16.326;2024-03-17T12:27:22;2.67;;;1.15;;
49678;SDS011;35570;48.218;16.326;2024-03-17T12:29:50;2.40;;;1.05;;
49678;SDS011;35570;48.218;16.326;2024-03-17T12:32:17;1.77;;;0.98;;
49678;SDS011;35570;48.218;16.326;2024-03-17T12:34:49;1.77;;;0.95;;
49678;SDS011;35570;48.218;16.326;2024-03-17T12:37:17;2.05;;;0.95;;
49678;SDS011;35570;48.218;16.326;2024-03-17T12:39:44;2.47;;;1.13;;
49678;SDS011;35570;48.218;16.326;2024-03-17T12:42:11;1.48;;;0.90;;
49678;SDS011;35570;48.218;16.326;2024-03-17T12:44:55;7.55;;;2.40;;
49678;SDS011;35570;48.218;16.326;2024-03-17T12:47:21;2.63;;;1.15;;
49678;SDS011;35570;48.218;16.326;2024-03-17T12:50:33;4.20;;;1.67;;
49678;SDS011;35570;48.218;16.326;2024-03-17T12:52:51;2.70;;;1.52;;
49678;SDS011;35570;48.218;16.326;2024-03-17T12:55:18;2.80;;;1.10;;
49678;SDS011;35570;48.218;16.326;2024-03-17T13:01:01;3.15;;;1.13;;
49678;SDS011;35570;48.218;16.326;2024-03-17T13:05:59;1.95;;;1.00;;
49678;SDS011;35570;48.218;16.326;2024-03-17T13:08:26;2.53;;;1.20;;
49678;SDS011;35570;48.218;16.326;2024-03-17T13:10:51;1.77;;;0.77;;
49678;SDS011;35570;48.218;16.326;2024-03-17T13:13:17;1.90;;;1.23;;
49678;SDS011;35570;48.218;16.326;2024-03-17T13:15:43;3.60;;;1.20;;
49678;SDS011;35570;48.218;16.326;2024-03-17T13:18:09;2.15;;;0.88;;
49678;SDS011;35570;48.218;16.326;2024-03-17T13:20:37;2.33;;;0.90;;
49678;SDS011;35570;48.218;16.326;2024-03-17T13:23:02;2.47;;;1.58;;
49678;SDS011;35570;48.218;16.326;2024-03-17T13:25:29;2.85;;;1.63;;
49678;SDS011;35570;48.218;16.326;2024-03-17T13:27:59;3.80;;;1.65;;
49678;SDS011;35570;48.218;16.326;2024-03-17T13:30:26;3.55;;;1.50;;
49678;SDS011;35570;48.218;16.326;2024-03-17T13:32:53;3.22;;;1.63;;
49678;SDS011;35570;48.218;16.326;2024-03-17T13:35:26;2.50;;;1.15;;
49678;SDS011;35570;48.218;16.326;2024-03-17T13:37:54;2.97;;;1.27;;
49678;SDS011;35570;48.218;16.326;2024-03-17T13:40:21;2.15;;;1.20;;
49678;SDS011;35570;48.218;16.326;2024-03-17T13:42:51;3.65;;;1.20;;
49678;SDS011;35570;48.218;16.326;2024-03-17T13:45:18;3.13;;;1.20;;
49678;SDS011;35570;48.218;16.326;2024-03-17T13:48:01;2.75;;;1.20;;
49678;SDS011;35570;48.218;16.326;2024-03-17T13:50:29;3.33;;;1.38;;
49678;SDS011;35570;48.218;16.326;2024-03-17T13:52:55;1.95;;;1.02;;
49678;SDS011;35570;48.218;16.326;2024-03-17T13:55:23;2.03;;;1.50;;
49678;SDS011;35570;48.218;16.326;2024-03-17T13:57:52;2.60;;;1.30;;
49678;SDS011;35570;48.218;16.326;2024-03-17T14:00:25;2.35;;;0.90;;
49678;SDS011;35570;48.218;16.326;2024-03-17T14:02:52;2.67;;;1.33;;
49678;SDS011;35570;48.218;16.326;2024-03-17T14:05:20;1.92;;;1.23;;
49678;SDS011;35570;48.218;16.326;2024-03-17T14:07:46;2.40;;;1.20;;
49678;SDS011;35570;48.218;16.326;2024-03-17T14:10:14;3.72;;;2.00;;
49678;SDS011;35570;48.218;16.326;2024-03-17T14:12:41;2.65;;;1.63;;
49678;SDS011;35570;48.218;16.326;2024-03-17T14:15:07;2.08;;;1.50;;
49678;SDS011;35570;48.218;16.326;2024-03-17T14:17:36;3.67;;;1.80;;
49678;SDS011;35570;48.218;16.326;2024-03-17T14:20:02;8.93;;;1.45;;
49678;SDS011;35570;48.218;16.326;2024-03-17T14:22:31;1.92;;;1.10;;
49678;SDS011;35570;48.218;16.326;2024-03-17T14:24:57;2.03;;;0.95;;
49678;SDS011;35570;48.218;16.326;2024-03-17T14:27:22;2.42;;;1.00;;
49678;SDS011;35570;48.218;16.326;2024-03-17T14:29:48;3.85;;;2.50;;
49678;SDS011;35570;48.218;16.326;2024-03-17T14:32:15;4.05;;;2.90;;
49678;SDS011;35570;48.218;16.326;2024-03-17T14:34:40;1.33;;;1.08;;
49678;SDS011;35570;48.218;16.326;2024-03-17T14:37:06;2.17;;;1.10;;
49678;SDS011;35570;48.218;16.326;2024-03-17T14:39:32;2.75;;;1.08;;
49678;SDS011;35570;48.218;16.326;2024-03-17T14:41:58;2.63;;;1.58;;
49678;SDS011;35570;48.218;16.326;2024-03-17T14:44:23;2.03;;;1.10;;
49678;SDS011;35570;48.218;16.326;2024-03-17T14:46:49;2.42;;;1.52;;
49678;SDS011;35570;48.218;16.326;2024-03-17T14:49:19;2.17;;;1.38;;
49678;SDS011;35570;48.218;16.326;2024-03-17T14:51:45;3.00;;;1.30;;
49678;SDS011;35570;48.218;16.326;2024-03-17T14:54:10;2.63;;;1.48;;
49678;SDS011;35570;48.218;16.326;2024-03-17T14:56:36;2.72;;;1.35;;
49678;SDS011;35570;48.218;16.326;2024-03-17T14:59:02;3.17;;;1.10;;